Time;durP1;ratioP1;P1;durP2;ratioP2;P2;SDS_P1;SDS_P2;PMS_P1;PMS_P2;Temp;Humidity;BMP_temperature;BMP_pressure;BME280_temperature;BME280_humidity;BME280_pressure;Samples;Min_cycle;Max_cycle;Signal;HPM_P1;HPM_P2
2022/01/26 00:07:20;;;;;;;4.50;3.40;;;;;;;-6.09;43.18;94536.41;5028817;28;20096;-70
2022/01/26 00:09:45;;;;;;;6.78;3.83;;;;;;;-5.91;42.99;94567.78;5026384;28;20032;-70
2022/01/26 00:12:11;;;;;;;3.97;3.67;;;;;;;-5.93;43.18;94575.75;5029926;28;20174;-70
2022/01/26 00:14:41;;;;;;;5.07;4.35;;;;;;;-5.95;43.03;94572.53;5018661;28;20112;-70
2022/01/26 00:17:07;;;;;;;8.60;4.50;;;;;;;-6.09;43.19;94568.28;5044870;28;20319;-71
2022/01/26 00:19:48;;;;;;;8.52;4.55;;;;;;;-6.03;43.31;94553.78;5028080;28;20041;-71
2022/01/26 00:22:31;;;;;;;6.10;3.30;;;;;;;-5.80;42.81;94556.84;5025510;28;20029;-73
2022/01/26 00:38:37;;;;;;;5.10;3.10;;;;;;;-5.67;42.38;94556.13;5024439;28;20118;-71
2022/01/26 00:41:07;;;;;;;9.25;4.70;;;;;;;-5.75;42.42;94552.69;5026868;28;20447;-70
2022/01/26 00:43:34;;;;;;;8.68;5.72;;;;;;;-5.88;42.58;94550.06;5027336;28;20045;-71
2022/01/26 00:46:01;;;;;;;3.38;3.05;;;;;;;-6.02;42.64;94517.34;5026129;28;20572;-70
2022/01/26 00:48:30;;;;;;;5.82;3.50;;;;;;;-5.70;42.50;94546.91;5026709;28;20029;-70
2022/01/26 00:51:00;;;;;;;4.90;4.03;;;;;;;-5.75;42.36;94544.13;5024342;28;20029;-70
2022/01/26 00:53:32;;;;;;;10.75;3.40;;;;;;;-5.84;42.38;94509.00;5026770;28;20060;-71
2022/01/26 00:55:57;;;;;;;4.30;3.38;;;;;;;-5.84;42.52;94537.50;5026602;28;20030;-71
2022/01/26 00:58:23;;;;;;;3.45;2.75;;;;;;;-6.15;42.65;94488.00;5030237;28;20041;-70
2022/01/26 01:00:49;;;;;;;4.03;3.03;;;;;;;-5.72;42.40;94548.94;5023779;28;20036;-71
2022/01/26 01:03:14;;;;;;;3.88;3.05;;;;;;;-6.52;42.97;94479.69;5024699;28;20440;-70
2022/01/26 01:06:01;;;;;;;4.43;3.72;;;;;;;-5.92;43.34;94542.88;5022174;28;20561;-73
2022/01/26 01:08:27;;;;;;;5.55;3.92;;;;;;;-5.71;43.32;94534.94;5023374;28;20349;-71
2022/01/26 01:10:55;;;;;;;6.03;3.47;;;;;;;-5.60;43.02;94542.16;5023740;28;20524;-70
2022/01/26 01:13:30;;;;;;;7.85;3.97;;;;;;;-5.58;42.99;94545.38;5025823;28;20037;-71
2022/01/26 01:15:55;;;;;;;;;;;;;;;-5.64;43.00;94546.16;5025262;28;20190;-70
2022/01/26 01:18:42;;;;;;;3.40;2.60;;;;;;;-5.87;43.53;94509.41;5021935;28;20241;-70
2022/01/26 01:24:14;;;;;;;4.35;3.90;;;;;;;-5.34;42.79;94521.50;5024820;28;20523;-72
2022/01/26 01:34:19;;;;;;;6.38;4.20;;;;;;;-4.86;42.69;94529.09;5023696;28;20107;-71
2022/01/26 01:36:49;;;;;;;6.28;4.50;;;;;;;-4.82;42.59;94514.72;5020202;28;20033;-70
2022/01/26 01:39:15;;;;;;;10.05;4.43;;;;;;;-4.64;42.38;94527.88;5030331;28;20114;-71
2022/01/26 01:41:42;;;;;;;7.47;6.28;;;;;;;-4.39;42.13;94520.22;5023459;28;20041;-70
2022/01/26 01:44:09;;;;;;;9.43;5.25;;;;;;;-4.33;41.90;94497.84;5026855;28;20146;-70
2022/01/26 01:46:35;;;;;;;11.43;6.43;;;;;;;-4.02;42.02;94516.13;5022384;28;20053;-71
2022/01/26 01:49:03;;;;;;;14.15;6.82;;;;;;;-4.16;42.04;94512.78;5031964;28;20022;-70
2022/01/26 01:51:33;;;;;;;14.40;7.18;;;;;;;-4.02;41.84;94516.13;5023565;28;20029;-70
2022/01/26 01:53:59;;;;;;;9.18;5.82;;;;;;;-4.07;41.69;94479.56;5021981;28;20033;-70
2022/01/26 01:56:26;;;;;;;8.40;5.72;;;;;;;-3.94;41.73;94515.09;5027359;28;20044;-71
2022/01/26 01:58:53;;;;;;;11.25;6.55;;;;;;;-3.69;41.11;94508.97;5019545;28;20484;-71
2022/01/26 02:01:19;;;;;;;8.68;5.45;;;;;;;-3.70;41.22;94486.59;5025477;28;20341;-71
2022/01/26 02:03:44;;;;;;;12.32;6.50;;;;;;;-4.12;41.84;94490.59;5029665;28;20140;-70
2022/01/26 02:06:10;;;;;;;9.25;6.95;;;;;;;-4.41;42.03;94511.06;5031085;28;20507;-70
2022/01/26 02:08:35;;;;;;;14.90;7.82;;;;;;;-4.57;42.63;94468.94;5024873;28;20053;-71
2022/01/26 02:11:03;;;;;;;6.13;4.13;;;;;;;-4.47;42.25;94460.72;5031395;28;20083;-71
2022/01/26 02:13:36;;;;;;;7.40;4.95;;;;;;;-4.24;42.46;94501.81;5027690;28;20450;-72
2022/01/26 02:53:50;;;;;;;8.18;4.75;;;;;;;-3.93;42.22;94454.31;5029034;28;20099;-73
2022/01/26 02:59:14;;;;;;;5.22;4.30;;;;;;;-3.85;42.12;94490.44;5028342;28;20135;-72
2022/01/26 03:01:54;;;;;;;10.43;3.55;;;;;;;-4.15;42.23;94469.44;5022463;28;20124;-72
2022/01/26 03:04:32;;;;;;;4.63;3.50;;;;;;;-4.19;42.58;94489.00;5029717;28;20046;-73
2022/01/26 03:07:05;;;;;;;3.25;2.78;;;;;;;-4.34;42.34;94491.06;5026356;28;20024;-71
2022/01/26 03:09:40;;;;;;;9.48;3.55;;;;;;;-4.24;42.38;94486.22;5022733;28;20512;-72
2022/01/26 03:12:07;;;;;;;6.45;4.55;;;;;;;-4.60;42.63;94447.81;5023589;28;20497;-73
2022/01/26 03:19:52;;;;;;;9.13;4.53;;;;;;;-4.69;41.54;94459.41;5025404;28;20133;-74
2022/01/26 03:30:47;;;;;;;7.97;4.40;;;;;;;-4.66;42.02;94451.19;5025479;28;20053;-72
2022/01/26 03:35:58;;;;;;;11.07;8.07;;;;;;;-4.96;41.95;94466.41;5028339;28;20043;-72
2022/01/26 03:38:29;;;;;;;11.95;6.82;;;;;;;-5.05;42.11;94458.06;5025883;28;20052;-72
2022/01/26 03:41:14;;;;;;;12.95;6.85;;;;;;;-5.00;42.52;94491.97;5029415;28;20029;-72
2022/01/26 03:43:40;;;;;;;8.40;5.90;;;;;;;-5.30;42.71;94464.84;5029989;28;20050;-71
2022/01/26 03:46:06;;;;;;;14.10;7.63;;;;;;;-5.12;43.13;94466.81;5030180;28;20489;-73
2022/01/26 03:48:31;;;;;;;5.95;4.35;;;;;;;-5.16;43.85;94473.41;5027469;28;20021;-71
2022/01/26 03:50:56;;;;;;;6.90;5.13;;;;;;;-4.86;43.15;94490.16;5028451;28;20085;-72
2022/01/26 03:53:22;;;;;;;9.20;5.63;;;;;;;-4.88;43.52;94481.81;5029316;28;20045;-72
2022/01/26 03:55:47;;;;;;;9.00;6.50;;;;;;;-5.67;43.43;94354.78;5028633;28;20045;-71
2022/01/26 03:58:13;;;;;;;7.00;3.67;;;;;;;-4.68;43.36;94479.94;5028062;28;20485;-71
2022/01/26 04:00:38;;;;;;;4.38;3.85;;;;;;;-4.75;42.71;94455.03;5030395;28;20037;-72
2022/01/26 04:03:04;;;;;;;5.30;4.30;;;;;;;-4.49;42.21;94473.13;5026432;28;20573;-72
2022/01/26 04:05:30;;;;;;;6.28;4.28;;;;;;;-4.41;42.35;94475.50;5026913;28;20401;-74
2022/01/26 04:08:02;;;;;;;3.17;2.88;;;;;;;-4.46;42.22;94483.91;5029858;28;20049;-71
2022/01/26 04:13:02;;;;;;;5.00;4.33;;;;;;;-4.66;42.36;94451.19;5025182;28;20167;-72
2022/01/26 04:15:31;;;;;;;5.40;4.05;;;;;;;-4.54;42.21;94460.75;5029947;28;20029;-71
2022/01/26 04:17:57;;;;;;;5.88;4.35;;;;;;;-4.60;42.33;94463.38;5032206;28;20138;-72
2022/01/26 04:20:26;;;;;;;3.60;3.30;;;;;;;-4.97;41.87;94444.06;5029177;28;20041;-72
2022/01/26 04:23:06;;;;;;;2.67;2.47;;;;;;;-4.73;41.97;94468.59;5026261;28;20044;-71
2022/01/26 04:25:31;;;;;;;6.03;3.45;;;;;;;-4.69;41.98;94470.59;5027935;28;20072;-71
2022/01/26 04:28:02;;;;;;;4.40;3.25;;;;;;;-4.93;41.69;94447.88;5032387;28;20056;-71
2022/01/26 04:30:27;;;;;;;5.70;3.60;;;;;;;-4.83;41.86;94463.81;5029722;28;20146;-74
2022/01/26 04:32:52;;;;;;;5.47;3.35;;;;;;;-4.82;41.94;94468.00;5028976;28;20033;-72
2022/01/26 04:35:18;;;;;;;9.00;4.85;;;;;;;-4.90;41.49;94424.09;5026165;28;20412;-71
2022/01/26 04:40:23;;;;;;;4.30;3.28;;;;;;;-4.79;41.78;94462.41;5022631;28;20039;-72
2022/01/26 04:42:56;;;;;;;5.65;3.35;;;;;;;-4.89;41.08;94472.41;5028505;28;20032;-71
2022/01/26 04:45:21;;;;;;;3.47;2.63;;;;;;;-4.99;41.42;94472.03;5025941;28;20037;-74
2022/01/26 04:47:47;;;;;;;4.45;3.33;;;;;;;-5.14;41.88;94435.91;5024242;28;20037;-72
2022/01/26 04:50:13;;;;;;;6.45;3.70;;;;;;;-4.73;42.00;94459.00;5030917;28;21068;-72
2022/01/26 04:52:40;;;;;;;5.88;2.55;;;;;;;-4.47;41.54;94456.34;5026485;28;20056;-71
2022/01/26 04:55:06;;;;;;;5.82;3.28;;;;;;;-4.47;41.03;94432.97;5026708;28;20500;-71
2022/01/26 04:57:31;;;;;;;6.32;4.03;;;;;;;-4.16;40.63;94453.03;5030052;28;20033;-72
2022/01/26 04:59:57;;;;;;;4.03;3.40;;;;;;;-4.12;40.50;94456.00;5025859;28;20048;-72
2022/01/26 05:02:22;;;;;;;6.90;4.57;;;;;;;-4.51;40.33;94412.81;5028660;28;20092;-72
2022/01/26 05:04:48;;;;;;;6.80;4.00;;;;;;;-4.70;40.77;94398.13;5025418;28;20036;-70
2022/01/26 05:07:13;;;;;;;6.28;3.42;;;;;;;-4.45;41.03;94423.19;5026501;28;20470;-74
2022/01/26 05:09:39;;;;;;;5.97;3.97;;;;;;;-4.26;41.04;94451.88;5030095;28;20130;-71
2022/01/26 05:12:05;;;;;;;5.78;4.00;;;;;;;-4.38;41.56;94451.72;5029076;28;20044;-71
2022/01/26 05:14:31;;;;;;;8.02;3.22;;;;;;;-4.50;42.40;94461.94;5027325;28;20036;-72
2022/01/26 05:16:56;;;;;;;6.53;3.83;;;;;;;-4.43;42.32;94447.13;5025604;28;21766;-72
2022/01/26 05:19:21;;;;;;;5.18;4.22;;;;;;;-4.63;43.39;94472.34;5027361;28;20041;-71
2022/01/26 05:21:47;;;;;;;7.22;3.70;;;;;;;-4.52;43.50;94474.31;5023109;28;20031;-72
2022/01/26 05:24:12;;;;;;;7.15;4.68;;;;;;;-4.55;43.80;94466.97;5034165;28;20159;-71
2022/01/26 05:26:38;;;;;;;6.65;3.47;;;;;;;-4.49;44.15;94465.34;5025358;28;20041;-71
2022/01/26 05:29:04;;;;;;;6.00;3.72;;;;;;;-4.45;43.98;94454.34;5025727;28;20052;-72
2022/01/26 05:31:30;;;;;;;6.90;4.28;;;;;;;-4.50;44.87;94448.97;5025292;28;20132;-72
2022/01/26 05:33:56;;;;;;;7.05;4.05;;;;;;;-4.35;44.88;94459.13;5028198;28;20035;-71
2022/01/26 05:36:21;;;;;;;4.68;3.75;;;;;;;-4.46;45.15;94451.94;5021706;28;20123;-71
2022/01/26 05:38:47;;;;;;;7.43;3.42;;;;;;;-4.57;45.90;94455.97;5028114;28;20129;-73
2022/01/26 05:41:13;;;;;;;10.43;4.60;;;;;;;-4.72;46.48;94437.25;5027221;28;20122;-71
2022/01/26 05:43:38;;;;;;;8.98;4.40;;;;;;;-4.69;46.91;94455.00;5022943;28;20417;-72
2022/01/26 05:46:33;;;;;;;4.72;3.08;;;;;;;-4.91;47.34;94435.47;5029613;28;20028;-70
2022/01/26 05:48:52;;;;;;;8.95;4.63;;;;;;;-4.75;47.46;94437.66;5025379;28;20120;-72
2022/01/26 05:51:17;;;;;;;8.60;5.57;;;;;;;-4.72;47.45;94416.47;5027029;28;20056;-72
2022/01/26 05:53:42;;;;;;;8.35;5.65;;;;;;;-4.65;47.84;94445.81;5026910;28;20042;-71
2022/01/26 05:56:08;;;;;;;4.57;4.03;;;;;;;-4.60;48.11;94427.84;5025006;28;20516;-72
2022/01/26 05:58:34;;;;;;;6.30;4.38;;;;;;;-4.49;47.82;94440.16;5023435;28;20054;-71
2022/01/26 06:01:00;;;;;;;5.72;3.85;;;;;;;-4.45;47.82;94432.78;5026627;28;20025;-72
2022/01/26 06:03:27;;;;;;;7.43;4.38;;;;;;;-4.62;48.46;94411.66;5025912;28;20021;-72
2022/01/26 06:05:54;;;;;;;8.27;3.65;;;;;;;-4.54;48.58;94408.81;5026659;28;20041;-73
2022/01/26 06:08:21;;;;;;;7.97;5.10;;;;;;;-4.36;48.62;94420.34;5025308;28;20656;-72
2022/01/26 06:10:47;;;;;;;6.47;5.32;;;;;;;-4.19;49.72;94439.66;5025511;28;20036;-71
2022/01/26 06:13:12;;;;;;;6.28;5.55;;;;;;;-4.20;49.87;94427.69;5024210;28;20406;-72
2022/01/26 06:15:37;;;;;;;9.13;5.20;;;;;;;-4.00;49.79;94449.19;5027255;28;20124;-71
2022/01/26 06:18:03;;;;;;;7.75;6.20;;;;;;;-3.98;49.77;94418.56;5030192;28;20036;-72
2022/01/26 06:20:28;;;;;;;8.95;5.40;;;;;;;-3.81;49.88;94422.28;5028195;28;20508;-71
2022/01/26 06:22:54;;;;;;;9.35;6.43;;;;;;;-3.58;50.07;94445.13;5029507;28;20029;-71
2022/01/26 06:25:19;;;;;;;9.95;5.55;;;;;;;-3.80;51.28;94446.44;5024080;28;20041;-72
2022/01/26 06:27:45;;;;;;;11.35;5.60;;;;;;;-3.92;51.26;94427.34;5027882;28;20135;-72
2022/01/26 06:30:12;;;;;;;7.32;5.63;;;;;;;-3.77;51.54;94449.44;5023945;28;20420;-72
2022/01/26 06:32:38;;;;;;;10.40;5.55;;;;;;;-4.12;52.36;94411.84;5026949;28;20533;-71
2022/01/26 06:35:07;;;;;;;8.45;4.82;;;;;;;-4.13;53.08;94425.84;5027433;28;20128;-71
2022/01/26 06:37:32;;;;;;;6.68;4.20;;;;;;;-3.95;53.15;94443.34;5026041;28;20033;-72
2022/01/26 06:39:58;;;;;;;6.22;4.07;;;;;;;-3.92;53.29;94459.31;5026830;28;20950;-74
2022/01/26 06:42:28;;;;;;;7.68;5.72;;;;;;;-4.21;53.36;94415.69;5026557;28;20052;-72
2022/01/26 06:45:09;;;;;;;8.00;4.90;;;;;;;-4.30;53.78;94403.97;5024387;28;20131;-72
2022/01/26 06:47:56;;;;;;;8.70;6.60;;;;;;;-3.96;53.78;94452.16;5028108;28;20410;-72
2022/01/26 06:50:21;;;;;;;5.30;4.03;;;;;;;-3.96;54.02;94449.56;5034863;28;20041;-72
2022/01/26 06:52:47;;;;;;;13.13;5.47;;;;;;;-4.09;54.19;94427.00;5020087;28;20033;-74
2022/01/26 06:55:14;;;;;;;8.73;5.05;;;;;;;-3.92;54.13;94417.75;5026257;28;20014;-72
2022/01/26 06:57:40;;;;;;;7.82;6.13;;;;;;;-3.80;54.09;94449.84;5024502;28;20521;-72
2022/01/26 07:00:07;;;;;;;7.68;5.45;;;;;;;-3.66;54.17;94456.56;5024358;28;20036;-72
2022/01/26 07:02:32;;;;;;;9.63;5.80;;;;;;;-3.57;54.20;94463.13;5022756;28;20144;-74
2022/01/26 07:04:59;;;;;;;9.55;6.57;;;;;;;-3.55;54.01;94460.28;5023404;28;20043;-74
2022/01/26 07:07:24;;;;;;;7.32;4.55;;;;;;;-3.68;54.32;94430.00;5020642;28;20045;-72
2022/01/26 07:09:49;;;;;;;6.47;5.40;;;;;;;-3.67;54.55;94444.59;5029961;28;20485;-71
2022/01/26 07:12:15;;;;;;;8.82;5.88;;;;;;;-3.50;54.62;94454.47;5029849;28;20048;-74
2022/01/26 07:22:40;;;;;;;8.13;4.40;;;;;;;-3.72;55.71;94461.81;5027297;28;20512;-71
2022/01/26 07:25:06;;;;;;;12.80;5.95;;;;;;;-3.63;55.61;94452.75;5026927;28;20152;-74
2022/01/26 07:27:32;;;;;;;6.25;4.80;;;;;;;-3.70;55.65;94452.00;5030210;28;20024;-72
2022/01/26 07:29:59;;;;;;;10.32;6.85;;;;;;;-3.62;55.34;94429.16;5025452;28;20049;-72
2022/01/26 07:32:26;;;;;;;12.65;6.57;;;;;;;-3.51;55.49;94445.84;5026245;28;20511;-71
2022/01/26 07:34:51;;;;;;;10.35;4.70;;;;;;;-3.64;55.57;94420.75;5023665;28;20032;-71
2022/01/26 07:37:18;;;;;;;8.18;5.82;;;;;;;-3.43;55.49;94447.44;5025344;28;20040;-72
2022/01/26 07:39:48;;;;;;;10.95;5.80;;;;;;;-3.37;55.77;94451.78;5027266;28;20341;-71
2022/01/26 07:42:14;;;;;;;9.40;5.93;;;;;;;-3.41;55.74;94466.19;5034990;28;20580;-72
2022/01/26 07:44:40;;;;;;;6.25;5.07;;;;;;;-3.83;56.24;94434.69;5022089;28;20037;-71
2022/01/26 07:47:06;;;;;;;5.63;4.57;;;;;;;-3.80;56.21;94430.84;5027375;28;20079;-71
2022/01/26 07:49:31;;;;;;;5.88;4.93;;;;;;;-3.74;56.58;94464.63;5025359;28;20548;-72
2022/01/26 07:51:57;;;;;;;7.35;5.13;;;;;;;-3.90;57.10;94459.13;5023174;28;20064;-72
2022/01/26 07:54:23;;;;;;;9.07;4.43;;;;;;;-3.93;57.04;94431.72;5025326;28;20044;-71
2022/01/26 07:56:49;;;;;;;9.13;6.38;;;;;;;-3.81;57.30;94482.06;5023879;28;20037;-73
2022/01/26 07:59:14;;;;;;;12.75;6.13;;;;;;;-3.83;57.89;94483.25;5022083;28;20483;-73
2022/01/26 08:01:40;;;;;;;13.20;6.28;;;;;;;-3.94;57.80;94476.91;5021815;28;20033;-71
2022/01/26 08:04:05;;;;;;;7.43;4.18;;;;;;;-4.04;58.10;94471.34;5020110;28;20028;-71
2022/01/26 08:06:31;;;;;;;8.75;4.72;;;;;;;-4.04;58.04;94445.38;5021517;28;20033;-70
2022/01/26 08:08:56;;;;;;;7.80;4.07;;;;;;;-3.97;57.84;94447.94;5026252;28;20109;-71
2022/01/26 08:11:24;;;;;;;11.93;6.00;;;;;;;-3.66;57.37;94453.97;5023551;28;20044;-71
2022/01/26 08:13:50;;;;;;;8.80;5.88;;;;;;;-3.62;57.40;94444.75;5024464;28;20037;-72
2022/01/26 08:16:15;;;;;;;8.43;5.47;;;;;;;-3.67;57.21;94439.38;5023095;28;20060;-72
2022/01/26 08:18:40;;;;;;;7.05;4.13;;;;;;;-3.59;57.57;94462.53;5025145;28;20037;-73
2022/01/26 08:21:06;;;;;;;5.60;4.03;;;;;;;-3.53;57.53;94460.09;5021839;28;20091;-71
2022/01/26 08:23:33;;;;;;;7.80;4.68;;;;;;;-3.40;57.61;94473.00;5022182;28;20036;-71
2022/01/26 08:25:59;;;;;;;6.50;4.90;;;;;;;-3.31;57.40;94471.72;5019717;28;20056;-72
2022/01/26 08:28:40;;;;;;;5.65;4.18;;;;;;;-4.54;57.32;94265.28;5021639;28;20037;-71
2022/01/26 08:31:05;;;;;;;6.93;4.47;;;;;;;-3.19;57.26;94464.84;5023453;28;20026;-73
2022/01/26 08:33:31;;;;;;;7.70;4.80;;;;;;;-3.32;57.36;94465.75;5020718;28;20025;-71
2022/01/26 08:35:57;;;;;;;7.38;4.35;;;;;;;-3.38;57.73;94464.00;5020825;28;20270;-71
2022/01/26 08:38:23;;;;;;;8.38;5.95;;;;;;;-3.58;57.99;94458.94;5027780;28;20080;-71
2022/01/26 08:40:49;;;;;;;8.45;5.00;;;;;;;-3.53;58.06;94452.28;5019662;28;20103;-72
2022/01/26 08:43:15;;;;;;;11.43;5.63;;;;;;;-3.45;58.30;94478.84;5020189;28;20068;-71
2022/01/26 08:45:41;;;;;;;7.35;5.47;;;;;;;-3.44;58.19;94472.63;5021625;28;20115;-73
2022/01/26 08:48:07;;;;;;;12.73;5.97;;;;;;;-3.33;58.31;94484.16;5019700;28;20026;-72
2022/01/26 08:50:33;;;;;;;14.98;8.90;;;;;;;-3.27;58.21;94478.13;5022180;28;20450;-72
2022/01/26 08:52:58;;;;;;;11.10;6.38;;;;;;;-3.45;58.02;94457.22;5016296;28;20569;-72
2022/01/26 08:55:24;;;;;;;10.90;5.80;;;;;;;-3.12;57.95;94476.00;5021978;28;20060;-72
2022/01/26 08:57:49;;;;;;;7.47;5.00;;;;;;;-3.00;57.46;94482.13;5017421;28;20039;-71
2022/01/26 09:00:17;;;;;;;12.13;4.70;;;;;;;-3.16;57.59;94473.03;5016801;28;20040;-72
2022/01/26 09:02:42;;;;;;;5.93;3.60;;;;;;;-3.01;57.32;94480.50;5023494;28;20042;-71
2022/01/26 09:05:08;;;;;;;5.15;4.55;;;;;;;-3.16;57.47;94452.22;5019835;28;20607;-72
2022/01/26 09:07:34;;;;;;;9.60;5.45;;;;;;;-2.93;57.25;94476.88;5018956;28;20464;-74
2022/01/26 09:10:01;;;;;;;9.63;4.90;;;;;;;-3.29;57.67;94454.91;5028988;28;20032;-72
2022/01/26 09:12:28;;;;;;;6.88;4.13;;;;;;;-3.04;57.72;94480.94;5022769;28;20028;-71
2022/01/26 09:14:54;;;;;;;7.75;3.25;;;;;;;-3.04;57.42;94462.72;5022048;28;20051;-74
2022/01/26 09:17:20;;;;;;;8.55;4.38;;;;;;;-2.91;57.37;94483.44;5024231;28;20038;-71
2022/01/26 09:19:47;;;;;;;8.57;5.40;;;;;;;-3.07;57.53;94446.75;5022145;28;20040;-71
2022/01/26 09:22:14;;;;;;;6.90;5.15;;;;;;;-2.93;57.40;94495.09;5018924;28;20449;-72
2022/01/26 09:24:41;;;;;;;11.02;4.65;;;;;;;-3.00;57.60;94489.91;5022092;28;20078;-72
2022/01/26 09:27:08;;;;;;;7.90;4.55;;;;;;;-3.08;57.42;94460.78;5021057;28;20040;-70
2022/01/26 09:29:34;;;;;;;13.07;5.38;;;;;;;-2.98;57.46;94494.94;5036232;28;20465;-71
2022/01/26 09:32:00;;;;;;;6.07;4.53;;;;;;;-2.97;57.40;94484.28;5021129;28;20124;-71
2022/01/26 09:34:29;;;;;;;4.35;3.65;;;;;;;-2.74;57.07;94494.13;5024885;28;20504;-72
2022/01/26 09:36:54;;;;;;;7.22;4.85;;;;;;;-2.68;57.36;94495.06;5021199;28;20033;-71
2022/01/26 09:39:21;;;;;;;9.50;6.40;;;;;;;-2.59;56.71;94459.94;5034430;28;20053;-72
2022/01/26 09:41:50;;;;;;;9.50;5.78;;;;;;;-2.42;56.20;94466.16;5021231;28;20065;-73
2022/01/26 09:44:17;;;;;;;11.10;6.72;;;;;;;-2.20;55.65;94466.53;5018989;28;20041;-72
2022/01/26 09:46:43;;;;;;;13.60;8.27;;;;;;;-1.90;55.38;94478.56;5020646;28;20764;-73
2022/01/26 09:49:09;;;;;;;11.63;6.13;;;;;;;-1.94;55.22;94463.59;5021943;28;20025;-71
2022/01/26 09:51:43;;;;;;;7.95;5.38;;;;;;;-1.74;54.59;94469.34;5023313;28;20045;-72
2022/01/26 09:54:13;;;;;;;12.32;5.93;;;;;;;-1.82;54.68;94467.06;5017987;28;20049;-72
2022/01/26 09:56:38;;;;;;;6.68;5.05;;;;;;;-1.81;54.72;94473.88;5022131;28;20048;-71
2022/01/26 09:59:04;;;;;;;5.95;4.70;;;;;;;-1.84;54.72;94459.44;5021259;28;20044;-72
2022/01/26 10:01:50;;;;;;;9.82;6.20;;;;;;;-2.06;55.27;94455.72;5020124;28;20797;-74
2022/01/26 10:04:25;;;;;;;5.15;4.35;;;;;;;-2.16;55.40;94437.19;5024782;28;20067;-72
2022/01/26 10:18:02;;;;;;;10.65;6.07;;;;;;;-2.15;56.54;94458.84;5025836;28;20191;-72
2022/01/26 10:20:28;;;;;;;6.50;4.78;;;;;;;-2.36;56.32;94407.97;5020272;28;20068;-71
2022/01/26 10:22:53;;;;;;;5.22;4.60;;;;;;;-2.10;56.01;94438.94;5017582;28;20621;-72
2022/01/26 10:25:20;;;;;;;8.18;5.22;;;;;;;-1.97;55.93;94449.19;5024209;28;20094;-71
2022/01/26 10:27:50;;;;;;;9.00;5.18;;;;;;;-1.89;55.91;94435.84;5023714;28;20406;-71
2022/01/26 10:30:19;;;;;;;9.90;5.68;;;;;;;-1.77;55.73;94453.34;5018924;28;20448;-72
2022/01/26 10:32:46;;;;;;;9.93;5.95;;;;;;;-2.11;56.08;94437.34;5023234;28;20039;-71
2022/01/26 10:35:14;;;;;;;9.27;5.15;;;;;;;-2.03;56.56;94452.66;5023839;28;20044;-72
2022/01/26 10:37:49;;;;;;;8.43;5.95;;;;;;;-2.16;56.23;94413.75;5020334;28;20114;-71
2022/01/26 10:40:21;;;;;;;9.18;4.97;;;;;;;-2.04;56.89;94445.06;5023839;28;20051;-71
2022/01/26 10:42:56;;;;;;;11.68;6.00;;;;;;;-2.00;56.89;94446.22;5023913;28;20135;-71
2022/01/26 10:45:38;;;;;;;6.47;4.78;;;;;;;-1.96;57.11;94437.75;5019597;28;20045;-71
2022/01/26 10:48:19;;;;;;;5.57;4.85;;;;;;;-2.11;57.13;94437.34;5018104;28;20120;-72
2022/01/26 10:51:08;;;;;;;6.65;5.63;;;;;;;-2.38;57.75;94425.63;5011417;28;20040;-71
2022/01/26 10:53:37;;;;;;;12.20;5.90;;;;;;;-2.57;58.38;94422.22;5015949;28;20065;-71
2022/01/26 10:56:04;;;;;;;6.28;5.20;;;;;;;-2.35;58.73;94440.84;5016954;28;20044;-72
2022/01/26 10:58:30;;;;;;;12.02;5.30;;;;;;;-2.20;58.58;94438.66;5022335;28;20414;-74
2022/01/26 11:00:57;;;;;;;16.70;6.03;;;;;;;-2.09;58.24;94444.91;5017831;28;20025;-73
2022/01/26 11:03:22;;;;;;;9.57;6.53;;;;;;;-2.10;57.84;94412.88;5022291;28;20037;-71
2022/01/26 11:05:48;;;;;;;13.63;8.55;;;;;;;-1.99;57.79;94432.16;5016710;28;20072;-70
2022/01/26 11:08:16;;;;;;;12.75;6.13;;;;;;;-2.04;57.82;94427.59;5021319;28;20644;-71
2022/01/26 11:10:46;;;;;;;9.02;5.70;;;;;;;-1.88;57.57;94436.63;5025620;28;20463;-71
2022/01/26 11:13:26;;;;;;;12.65;6.63;;;;;;;-1.84;57.30;94417.72;5019349;28;20148;-71
2022/01/26 11:15:52;;;;;;;8.68;4.60;;;;;;;-1.82;56.89;94394.03;5037846;28;20024;-71
2022/01/26 11:18:21;;;;;;;10.20;6.03;;;;;;;-1.63;56.99;94433.91;5019306;28;20037;-71
2022/01/26 11:20:50;;;;;;;9.73;5.47;;;;;;;-1.56;56.48;94430.19;5024832;28;20307;-71
2022/01/26 11:23:18;;;;;;;7.63;5.85;;;;;;;-1.66;56.77;94432.53;5023574;28;20026;-71
2022/01/26 11:25:49;;;;;;;7.70;4.25;;;;;;;-1.85;57.34;94431.78;5021747;28;20549;-71
2022/01/26 11:28:25;;;;;;;6.35;4.82;;;;;;;-2.05;57.49;94405.19;5019164;28;20029;-72
2022/01/26 11:30:53;;;;;;;7.40;4.93;;;;;;;-1.97;57.83;94420.50;5023927;28;20156;-71
2022/01/26 11:33:22;;;;;;;7.38;4.82;;;;;;;-2.10;57.84;94432.94;5013745;28;20057;-72
2022/01/26 11:35:49;;;;;;;6.68;5.25;;;;;;;-2.23;58.58;94412.22;5023471;28;20063;-71
2022/01/26 11:39:03;;;;;;;8.52;4.72;;;;;;;-2.09;58.54;94421.47;5013284;28;20575;-72
2022/01/26 11:47:30;;;;;;;5.90;4.68;;;;;;;-1.74;57.72;94411.97;5022239;28;20572;-71
2022/01/26 11:50:05;;;;;;;7.57;5.35;;;;;;;-1.70;57.47;94409.75;5024921;28;20047;-71
2022/01/26 11:52:35;;;;;;;10.18;6.25;;;;;;;-1.96;57.82;94383.00;5026124;28;20055;-70
2022/01/26 11:55:03;;;;;;;13.63;6.05;;;;;;;-1.71;57.77;94408.13;5020692;28;20489;-71
2022/01/26 11:57:49;;;;;;;11.38;7.30;;;;;;;-1.68;57.84;94405.06;5021108;28;20468;-71
2022/01/26 12:00:21;;;;;;;4.65;3.95;;;;;;;-1.55;57.42;94404.88;5022296;28;20574;-71
2022/01/26 12:05:15;;;;;;;7.22;5.43;;;;;;;-1.61;57.66;94379.72;5017250;28;20386;-72
2022/01/26 12:07:52;;;;;;;8.43;5.15;;;;;;;-1.59;57.73;94393.31;5015875;28;20049;-71
2022/01/26 12:10:26;;;;;;;15.07;6.05;;;;;;;-1.39;57.71;94410.25;5028343;28;20635;-71
2022/01/26 12:13:01;;;;;;;6.85;5.32;;;;;;;-1.50;58.31;94415.44;5018952;28;20021;-71
2022/01/26 12:15:31;;;;;;;9.43;5.35;;;;;;;-1.54;58.28;94412.50;5021854;28;20037;-71
2022/01/26 12:18:18;;;;;;;9.30;6.45;;;;;;;-1.71;59.07;94415.97;5022278;28;20029;-71
2022/01/26 12:32:14;;;;;;;11.73;6.32;;;;;;;-2.03;61.01;94374.47;5026627;28;20475;-71
2022/01/26 12:37:15;;;;;;;9.68;6.20;;;;;;;-1.73;60.12;94391.91;5021815;28;20041;-71
2022/01/26 12:43:00;;;;;;;12.52;6.55;;;;;;;-1.58;59.61;94384.47;5021483;28;20518;-71
2022/01/26 12:45:27;;;;;;;5.68;4.18;;;;;;;-1.70;59.84;94381.81;5016996;28;20033;-71
2022/01/26 12:47:55;;;;;;;10.10;5.47;;;;;;;-1.62;59.40;94385.94;5016414;28;20795;-71
2022/01/26 12:50:22;;;;;;;11.75;6.03;;;;;;;-1.60;59.38;94389.09;5022230;28;20501;-71
2022/01/26 12:52:55;;;;;;;11.52;7.35;;;;;;;-1.65;59.56;94394.19;5020484;28;20049;-72
2022/01/26 12:55:29;;;;;;;13.15;6.93;;;;;;;-1.76;59.36;94393.16;5021112;28;20044;-73
2022/01/26 12:57:55;;;;;;;12.30;7.32;;;;;;;-1.77;59.35;94364.69;5017425;28;20029;-73
2022/01/26 13:00:23;;;;;;;12.57;7.22;;;;;;;-1.93;59.21;94343.44;5024110;28;20033;-74
2022/01/26 13:02:49;;;;;;;9.10;6.32;;;;;;;-1.79;58.98;94379.75;5021938;28;20640;-73
2022/01/26 13:05:23;;;;;;;5.85;4.72;;;;;;;-1.85;59.34;94381.47;5019726;28;20369;-73
2022/01/26 13:07:59;;;;;;;7.97;6.03;;;;;;;-1.82;59.27;94388.81;5020423;28;20046;-73
2022/01/26 13:10:24;;;;;;;7.15;6.18;;;;;;;-1.80;58.91;94376.34;5023925;28;20589;-73
2022/01/26 13:12:50;;;;;;;12.45;5.85;;;;;;;-2.10;59.34;94349.53;5017739;28;20029;-74
2022/01/26 13:17:47;;;;;;;9.43;5.53;;;;;;;-1.73;58.76;94368.44;5020540;28;20044;-74
2022/01/26 13:52:01;;;;;;;10.57;5.28;;;;;;;-1.07;56.47;94366.34;5017030;28;20041;-73
2022/01/26 13:54:58;;;;;;;9.13;4.43;;;;;;;-1.10;56.64;94366.81;5022524;28;20537;-74
2022/01/26 14:00:00;;;;;;;8.30;5.22;;;;;;;-1.01;56.52;94375.91;5020654;28;20098;-73
2022/01/26 14:02:31;;;;;;;9.95;6.22;;;;;;;-0.96;56.29;94372.59;5022439;28;20047;-74
2022/01/26 14:04:56;;;;;;;7.65;4.90;;;;;;;-0.90;55.71;94383.97;5022896;28;20505;-73
2022/01/26 14:07:21;;;;;;;7.45;4.47;;;;;;;-1.01;55.33;94368.06;5017552;28;20041;-72
2022/01/26 14:09:47;;;;;;;8.10;3.85;;;;;;;-0.90;55.29;94395.19;5027302;28;20021;-73
2022/01/26 14:12:16;;;;;;;13.05;5.28;;;;;;;-0.85;55.28;94399.75;5019958;28;20044;-73
2022/01/26 14:14:44;;;;;;;7.10;4.38;;;;;;;-1.06;55.29;94388.84;5022577;28;20060;-71
2022/01/26 14:17:24;;;;;;;7.30;4.50;;;;;;;-0.99;55.30;94394.75;5017902;28;20697;-75
2022/01/26 14:20:15;;;;;;;7.97;4.85;;;;;;;-1.29;55.98;94375.78;5022524;28;20127;-73
2022/01/26 14:25:27;;;;;;;8.20;4.05;;;;;;;-1.30;55.83;94407.31;5017194;28;20099;-73
2022/01/26 14:27:56;;;;;;;5.93;4.43;;;;;;;-1.69;56.39;94380.00;5021350;28;20028;-73
2022/01/26 15:30:05;;;;;;;15.43;9.68;;;;;;;-0.88;53.16;94427.13;5017400;28;20187;-72
2022/01/26 15:35:40;;;;;;;7.65;4.57;;;;;;;-1.19;53.78;94388.28;5023096;28;20064;-73
2022/01/26 15:41:52;;;;;;;8.77;5.18;;;;;;;-0.76;53.12;94440.16;5024694;28;21469;-74